Time;durP1;ratioP1;P1;durP2;ratioP2;P2;SDS_P1;SDS_P2;PMS_P1;PMS_P2;Temp;Humidity;BMP_temperature;BMP_pressure;BME280_temperature;BME280_humidity;BME280_pressure;Samples;Min_cycle;Max_cycle;Signal;HPM_P1;HPM_P2
2021/12/12 00:00:30;;;;;;;3.33;1.00;;;;;;;9.17;60.51;101911.13;4961757;28;20042;-68
2021/12/12 00:03:06;;;;;;;3.45;1.20;;;;;;;9.15;61.00;101904.94;4961446;28;20031;-68
2021/12/12 00:05:40;;;;;;;3.70;1.20;;;;;;;9.10;62.61;101906.66;4968065;28;20058;-69
2021/12/12 00:08:07;;;;;;;5.38;1.05;;;;;;;8.99;63.26;101904.78;4975999;28;20459;-68
2021/12/12 00:10:36;;;;;;;3.47;1.05;;;;;;;8.93;63.57;101902.06;4972863;28;20066;-68
2021/12/12 00:13:13;;;;;;;3.75;0.85;;;;;;;8.88;64.08;101901.09;4969647;28;20026;-69
2021/12/12 00:15:40;;;;;;;;;;;;;;;8.82;63.04;101901.06;4977986;28;20118;-69
2021/12/12 00:18:06;;;;;;;6.28;0.90;;;;;;;8.72;63.63;101901.78;4977346;28;19910;-69
2021/12/12 00:20:34;;;;;;;4.43;1.52;;;;;;;8.67;64.43;101899.97;4973030;28;20042;-68
2021/12/12 00:23:01;;;;;;;3.42;1.02;;;;;;;8.59;65.02;101898.97;4968997;28;20454;-69
2021/12/12 00:25:31;;;;;;;3.88;1.00;;;;;;;8.53;65.17;101896.25;4959261;28;20129;-68
2021/12/12 00:27:58;;;;;;;4.43;0.85;;;;;;;8.46;66.53;101894.38;4958093;28;20462;-68
2021/12/12 00:30:26;;;;;;;3.72;0.80;;;;;;;8.39;67.16;101887.25;4956744;28;20041;-68
2021/12/12 00:32:53;;;;;;;8.80;0.88;;;;;;;8.32;66.95;101892.41;4983427;28;20147;-68
2021/12/12 00:35:20;;;;;;;5.32;1.02;;;;;;;8.24;67.74;101887.91;4967939;28;20031;-68
2021/12/12 00:37:50;;;;;;;3.70;0.85;;;;;;;8.16;68.66;101880.75;4970113;28;20459;-68
2021/12/12 00:40:28;;;;;;;2.50;1.10;;;;;;;8.09;70.97;101888.53;4975149;28;20541;-68
2021/12/12 00:43:00;;;;;;;4.75;1.45;;;;;;;8.01;71.66;101883.16;4976195;28;20117;-70
2021/12/12 00:45:28;;;;;;;5.30;1.05;;;;;;;7.95;71.50;101886.56;4988775;28;20368;-69
2021/12/12 00:47:55;;;;;;;8.20;1.10;;;;;;;7.93;72.49;101882.13;4968442;28;20037;-69
2021/12/12 00:50:32;;;;;;;4.28;1.00;;;;;;;7.86;72.54;101886.41;4975239;28;20045;-68
2021/12/12 00:53:00;;;;;;;3.80;1.05;;;;;;;7.83;71.87;101894.28;4974457;28;20034;-68
2021/12/12 00:55:27;;;;;;;5.85;1.20;;;;;;;7.81;73.48;101891.63;4973751;28;20121;-68
2021/12/12 00:57:54;;;;;;;5.53;1.05;;;;;;;7.74;72.29;101894.97;4968638;28;20029;-67
2021/12/12 01:00:27;;;;;;;4.13;1.20;;;;;;;7.70;73.65;101895.78;4970918;28;20058;-67
2021/12/12 01:02:56;;;;;;;4.82;1.40;;;;;;;7.71;73.18;101896.69;4986307;28;20033;-68
2021/12/12 01:05:24;;;;;;;4.75;1.10;;;;;;;7.58;72.74;101899.09;4960872;28;20027;-67
2021/12/12 01:07:51;;;;;;;3.60;0.90;;;;;;;7.51;73.13;101895.47;4957278;28;20031;-67
2021/12/12 01:10:25;;;;;;;;;;;;;;;7.57;74.69;101892.06;4980283;28;20037;-67
2021/12/12 01:12:54;;;;;;;6.50;1.48;;;;;;;7.61;75.27;101895.63;4975482;28;19914;-68
2021/12/12 01:15:51;;;;;;;9.55;3.28;;;;;;;7.56;76.57;101906.09;4976336;28;20104;-68
2021/12/12 01:18:24;;;;;;;11.68;2.90;;;;;;;7.47;75.49;101903.28;4976132;28;20079;-67
2021/12/12 01:20:54;;;;;;;9.27;2.60;;;;;;;7.58;76.04;101899.09;4975046;28;20406;-67
2021/12/12 01:23:35;;;;;;;7.35;2.30;;;;;;;7.49;75.80;101904.19;4974103;28;20513;-67
2021/12/12 01:26:05;;;;;;;7.63;1.88;;;;;;;7.43;78.16;101893.56;4974941;28;20172;-67
2021/12/12 01:28:35;;;;;;;7.43;2.90;;;;;;;7.47;78.24;101898.03;4973458;28;20035;-67
2021/12/12 01:31:05;;;;;;;8.73;2.70;;;;;;;7.49;79.33;101901.56;4987799;28;20039;-67
2021/12/12 01:33:33;;;;;;;9.05;2.25;;;;;;;7.53;80.04;101903.38;4967373;28;20031;-67
2021/12/12 01:36:21;;;;;;;3.40;1.23;;;;;;;7.59;80.63;101903.50;4958754;28;20023;-67
2021/12/12 01:38:55;;;;;;;;;;;;;;;7.56;80.16;101887.69;4964233;28;20031;-67
2021/12/12 01:41:34;;;;;;;6.53;1.30;;;;;;;7.66;80.13;101894.84;4968963;28;19917;-67
2021/12/12 01:44:14;;;;;;;7.25;1.77;;;;;;;7.66;80.43;101893.97;4964440;28;20470;-67
2021/12/12 01:46:53;;;;;;;5.05;1.30;;;;;;;7.67;80.72;101885.22;4976000;28;20023;-67
2021/12/12 01:49:25;;;;;;;8.23;1.67;;;;;;;7.69;80.92;101894.00;4969439;28;20035;-67
2021/12/12 01:51:53;;;;;;;9.43;1.55;;;;;;;7.62;80.89;101897.41;4958302;28;20030;-67
2021/12/12 01:54:25;;;;;;;5.82;1.38;;;;;;;7.60;81.44;101897.38;4970468;28;20037;-67
2021/12/12 01:56:59;;;;;;;7.70;1.85;;;;;;;7.64;81.34;101895.72;4967427;28;20035;-67
2021/12/12 01:59:30;;;;;;;12.18;2.10;;;;;;;7.63;81.33;101892.19;4955458;28;20027;-67
2021/12/12 02:02:02;;;;;;;5.70;1.73;;;;;;;7.56;82.04;101906.09;4955133;28;20019;-67
2021/12/12 02:04:36;;;;;;;5.57;1.67;;;;;;;7.60;81.96;101901.75;4956782;28;20026;-67
2021/12/12 02:09:51;;;;;;;5.40;1.70;;;;;;;7.44;81.01;101901.47;4975537;28;20085;-67
2021/12/12 02:12:21;;;;;;;7.53;1.83;;;;;;;7.31;81.64;101902.13;4975274;28;20033;-67
2021/12/12 02:14:48;;;;;;;9.70;1.90;;;;;;;7.21;81.05;101903.66;4975518;28;20037;-67
2021/12/12 02:17:25;;;;;;;8.27;1.88;;;;;;;7.13;81.68;101895.63;4975502;28;20018;-67
